sensor_id;sensor_type;location;lat;lon;timestamp;temperature;humidity
23087;DHT22;11712;51.134;4.156;2022-09-09T00:04:37;15.50;99.90
23087;DHT22;11712;51.134;4.156;2022-09-09T00:07:12;15.50;99.90
23087;DHT22;11712;51.134;4.156;2022-09-09T00:09:50;15.30;99.90
23087;DHT22;11712;51.134;4.156;2022-09-09T00:12:54;15.40;99.90
23087;DHT22;11712;51.134;4.156;2022-09-09T00:15:23;15.40;99.90
23087;DHT22;11712;51.134;4.156;2022-09-09T00:17:53;15.40;99.90
23087;DHT22;11712;51.134;4.156;2022-09-09T00:20:42;15.40;99.90
23087;DHT22;11712;51.134;4.156;2022-09-09T00:23:34;15.40;99.90
23087;DHT22;11712;51.134;4.156;2022-09-09T00:28:39;15.30;99.90
23087;DHT22;11712;51.134;4.156;2022-09-09T00:31:13;15.30;99.90
23087;DHT22;11712;51.134;4.156;2022-09-09T00:33:40;15.30;99.90
23087;DHT22;11712;51.134;4.156;2022-09-09T00:36:21;15.20;99.90
23087;DHT22;11712;51.134;4.156;2022-09-09T00:38:57;15.20;99.90
23087;DHT22;11712;51.134;4.156;2022-09-09T00:44:31;15.20;99.90
23087;DHT22;11712;51.134;4.156;2022-09-09T00:47:04;15.30;99.90
23087;DHT22;11712;51.134;4.156;2022-09-09T00:49:35;15.30;99.90
23087;DHT22;11712;51.134;4.156;2022-09-09T00:52:24;15.40;99.90
23087;DHT22;11712;51.134;4.156;2022-09-09T00:54:57;15.30;99.90
23087;DHT22;11712;51.134;4.156;2022-09-09T00:57:32;15.40;99.90
23087;DHT22;11712;51.134;4.156;2022-09-09T01:05:43;15.20;99.90
23087;DHT22;11712;51.134;4.156;2022-09-09T01:08:35;15.20;99.90
23087;DHT22;11712;51.134;4.156;2022-09-09T01:11:02;15.10;99.90
23087;DHT22;11712;51.134;4.156;2022-09-09T01:13:34;15.10;99.90
23087;DHT22;11712;51.134;4.156;2022-09-09T01:16:03;15.20;99.90
23087;DHT22;11712;51.134;4.156;2022-09-09T01:18:37;15.20;99.90
23087;DHT22;11712;51.134;4.156;2022-09-09T01:21:21;15.30;99.90
23087;DHT22;11712;51.134;4.156;2022-09-09T01:26:44;15.30;99.90
23087;DHT22;11712;51.134;4.156;2022-09-09T01:29:13;15.20;99.90
23087;DHT22;11712;51.134;4.156;2022-09-09T01:31:41;15.20;99.90
23087;DHT22;11712;51.134;4.156;2022-09-09T01:34:15;15.20;99.90
23087;DHT22;11712;51.134;4.156;2022-09-09T01:36:42;15.20;99.90
23087;DHT22;11712;51.134;4.156;2022-09-09T01:39:10;15.20;99.90
23087;DHT22;11712;51.134;4.156;2022-09-09T01:41:37;15.10;99.90
23087;DHT22;11712;51.134;4.156;2022-09-09T01:44:04;15.10;99.90
23087;DHT22;11712;51.134;4.156;2022-09-09T01:46:31;15.10;99.90
23087;DHT22;11712;51.134;4.156;2022-09-09T01:48:57;15.00;99.90
23087;DHT22;11712;51.134;4.156;2022-09-09T01:51:24;15.00;99.90
23087;DHT22;11712;51.134;4.156;2022-09-09T01:53:50;15.00;99.90
23087;DHT22;11712;51.134;4.156;2022-09-09T01:58:53;14.90;99.90
23087;DHT22;11712;51.134;4.156;2022-09-09T02:03:57;15.00;99.90
23087;DHT22;11712;51.134;4.156;2022-09-09T02:09:00;15.00;99.90
23087;DHT22;11712;51.134;4.156;2022-09-09T02:11:28;15.00;99.90
23087;DHT22;11712;51.134;4.156;2022-09-09T02:14:04;15.10;99.90
23087;DHT22;11712;51.134;4.156;2022-09-09T02:19:37;14.90;99.90
23087;DHT22;11712;51.134;4.156;2022-09-09T02:22:05;15.10;99.90
23087;DHT22;11712;51.134;4.156;2022-09-09T02:24:35;14.90;99.90
23087;DHT22;11712;51.134;4.156;2022-09-09T02:27:04;14.90;99.90
23087;DHT22;11712;51.134;4.156;2022-09-09T02:29:36;15.00;99.90
23087;DHT22;11712;51.134;4.156;2022-09-09T02:32:07;14.90;99.90
23087;DHT22;11712;51.134;4.156;2022-09-09T02:34:37;14.80;99.90
23087;DHT22;11712;51.134;4.156;2022-09-09T02:37:06;14.90;99.90
23087;DHT22;11712;51.134;4.156;2022-09-09T02:39:33;14.90;99.90
23087;DHT22;11712;51.134;4.156;2022-09-09T02:41:59;15.00;99.90
23087;DHT22;11712;51.134;4.156;2022-09-09T02:44:25;14.90;99.90
23087;DHT22;11712;51.134;4.156;2022-09-09T02:52:18;14.90;99.90
23087;DHT22;11712;51.134;4.156;2022-09-09T02:54:45;15.00;99.90
23087;DHT22;11712;51.134;4.156;2022-09-09T02:57:26;15.00;99.90
23087;DHT22;11712;51.134;4.156;2022-09-09T02:59:53;15.10;99.90
23087;DHT22;11712;51.134;4.156;2022-09-09T03:02:22;15.00;99.90
23087;DHT22;11712;51.134;4.156;2022-09-09T03:04:48;15.10;99.90
23087;DHT22;11712;51.134;4.156;2022-09-09T03:07:18;15.10;99.90
23087;DHT22;11712;51.134;4.156;2022-09-09T03:09:44;15.10;99.90
23087;DHT22;11712;51.134;4.156;2022-09-09T03:12:10;15.10;99.90
23087;DHT22;11712;51.134;4.156;2022-09-09T03:14:37;15.10;99.90
23087;DHT22;11712;51.134;4.156;2022-09-09T03:17:07;15.00;99.90
23087;DHT22;11712;51.134;4.156;2022-09-09T03:19:34;15.00;99.90
23087;DHT22;11712;51.134;4.156;2022-09-09T03:22:00;15.20;99.90
23087;DHT22;11712;51.134;4.156;2022-09-09T03:24:26;15.10;99.90
23087;DHT22;11712;51.134;4.156;2022-09-09T03:26:51;15.10;99.90
23087;DHT22;11712;51.134;4.156;2022-09-09T03:29:18;15.00;99.90
23087;DHT22;11712;51.134;4.156;2022-09-09T03:31:44;15.00;99.90
23087;DHT22;11712;51.134;4.156;2022-09-09T03:34:10;15.00;99.90
23087;DHT22;11712;51.134;4.156;2022-09-09T03:36:36;15.00;99.90
23087;DHT22;11712;51.134;4.156;2022-09-09T03:39:03;15.00;99.90
23087;DHT22;11712;51.134;4.156;2022-09-09T03:41:29;15.00;99.90
23087;DHT22;11712;51.134;4.156;2022-09-09T03:43:55;15.00;99.90
23087;DHT22;11712;51.134;4.156;2022-09-09T03:46:23;15.00;99.90
23087;DHT22;11712;51.134;4.156;2022-09-09T03:48:49;15.00;99.90
23087;DHT22;11712;51.134;4.156;2022-09-09T03:51:16;15.00;99.90
23087;DHT22;11712;51.134;4.156;2022-09-09T03:53:42;15.00;99.90
23087;DHT22;11712;51.134;4.156;2022-09-09T03:56:08;15.10;99.90
23087;DHT22;11712;51.134;4.156;2022-09-09T03:58:36;15.10;99.90
23087;DHT22;11712;51.134;4.156;2022-09-09T04:01:07;15.10;99.90
23087;DHT22;11712;51.134;4.156;2022-09-09T04:03:36;15.10;99.90
23087;DHT22;11712;51.134;4.156;2022-09-09T04:06:03;15.00;99.90
23087;DHT22;11712;51.134;4.156;2022-09-09T04:08:30;15.10;99.90
23087;DHT22;11712;51.134;4.156;2022-09-09T04:10:59;15.10;99.90
23087;DHT22;11712;51.134;4.156;2022-09-09T04:13:27;15.10;99.90
23087;DHT22;11712;51.134;4.156;2022-09-09T04:15:55;15.10;99.90
23087;DHT22;11712;51.134;4.156;2022-09-09T04:18:21;15.10;99.90
23087;DHT22;11712;51.134;4.156;2022-09-09T04:20:51;15.00;99.90
23087;DHT22;11712;51.134;4.156;2022-09-09T04:23:18;15.10;99.90
23087;DHT22;11712;51.134;4.156;2022-09-09T04:25:48;15.00;99.90
23087;DHT22;11712;51.134;4.156;2022-09-09T04:28:16;15.10;99.90
23087;DHT22;11712;51.134;4.156;2022-09-09T04:30:42;15.00;99.90
23087;DHT22;11712;51.134;4.156;2022-09-09T04:33:09;15.00;99.90
23087;DHT22;11712;51.134;4.156;2022-09-09T04:35:35;15.10;99.90
23087;DHT22;11712;51.134;4.156;2022-09-09T04:38:01;14.90;99.90
23087;DHT22;11712;51.134;4.156;2022-09-09T04:40:29;15.00;99.90
23087;DHT22;11712;51.134;4.156;2022-09-09T04:42:57;15.10;99.90
23087;DHT22;11712;51.134;4.156;2022-09-09T04:45:23;15.10;99.90
23087;DHT22;11712;51.134;4.156;2022-09-09T04:47:48;15.10;99.90
23087;DHT22;11712;51.134;4.156;2022-09-09T04:50:14;15.10;99.90
23087;DHT22;11712;51.134;4.156;2022-09-09T04:52:41;15.10;99.90
23087;DHT22;11712;51.134;4.156;2022-09-09T04:55:07;15.10;99.90
23087;DHT22;11712;51.134;4.156;2022-09-09T04:57:34;15.00;99.90
23087;DHT22;11712;51.134;4.156;2022-09-09T05:00:00;15.00;99.90
23087;DHT22;11712;51.134;4.156;2022-09-09T05:02:27;15.00;99.90
23087;DHT22;11712;51.134;4.156;2022-09-09T05:04:53;15.00;99.90
23087;DHT22;11712;51.134;4.156;2022-09-09T05:07:19;15.20;99.90
23087;DHT22;11712;51.134;4.156;2022-09-09T05:09:44;15.20;99.90
23087;DHT22;11712;51.134;4.156;2022-09-09T05:12:10;15.20;99.90
23087;DHT22;11712;51.134;4.156;2022-09-09T05:14:36;15.30;99.90
23087;DHT22;11712;51.134;4.156;2022-09-09T05:17:03;15.40;99.90
23087;DHT22;11712;51.134;4.156;2022-09-09T05:19:29;15.40;99.90
23087;DHT22;11712;51.134;4.156;2022-09-09T05:21:56;15.40;99.90
23087;DHT22;11712;51.134;4.156;2022-09-09T05:24:22;15.50;99.90
23087;DHT22;11712;51.134;4.156;2022-09-09T05:26:51;15.50;99.90
23087;DHT22;11712;51.134;4.156;2022-09-09T05:29:17;15.60;99.90
23087;DHT22;11712;51.134;4.156;2022-09-09T05:31:45;15.70;99.90
23087;DHT22;11712;51.134;4.156;2022-09-09T05:34:11;15.80;99.90
23087;DHT22;11712;51.134;4.156;2022-09-09T05:36:37;15.70;99.90
23087;DHT22;11712;51.134;4.156;2022-09-09T05:39:03;15.60;99.90
23087;DHT22;11712;51.134;4.156;2022-09-09T05:41:28;15.60;99.90
23087;DHT22;11712;51.134;4.156;2022-09-09T05:43:54;15.70;99.90
23087;DHT22;11712;51.134;4.156;2022-09-09T05:46:22;15.70;99.90
23087;DHT22;11712;51.134;4.156;2022-09-09T05:48:50;15.70;99.90
23087;DHT22;11712;51.134;4.156;2022-09-09T05:51:25;15.60;99.90
23087;DHT22;11712;51.134;4.156;2022-09-09T05:53:52;15.60;99.90
23087;DHT22;11712;51.134;4.156;2022-09-09T05:56:20;15.60;99.90
23087;DHT22;11712;51.134;4.156;2022-09-09T05:58:47;15.60;99.90
23087;DHT22;11712;51.134;4.156;2022-09-09T06:01:21;15.80;99.90
23087;DHT22;11712;51.134;4.156;2022-09-09T06:03:48;15.80;99.90
23087;DHT22;11712;51.134;4.156;2022-09-09T06:06:25;15.80;99.90
23087;DHT22;11712;51.134;4.156;2022-09-09T06:08:53;15.80;99.90
23087;DHT22;11712;51.134;4.156;2022-09-09T06:11:24;15.80;99.90
23087;DHT22;11712;51.134;4.156;2022-09-09T06:13:51;15.80;99.90
23087;DHT22;11712;51.134;4.156;2022-09-09T06:16:24;16.00;99.90
23087;DHT22;11712;51.134;4.156;2022-09-09T06:18:50;15.80;99.90
23087;DHT22;11712;51.134;4.156;2022-09-09T06:21:20;15.80;99.90
23087;DHT22;11712;51.134;4.156;2022-09-09T06:23:47;15.70;99.90
23087;DHT22;11712;51.134;4.156;2022-09-09T06:26:30;15.70;99.90
23087;DHT22;11712;51.134;4.156;2022-09-09T06:28:56;15.70;99.90
23087;DHT22;11712;51.134;4.156;2022-09-09T06:31:25;15.90;99.90
23087;DHT22;11712;51.134;4.156;2022-09-09T06:33:52;16.10;99.90
23087;DHT22;11712;51.134;4.156;2022-09-09T06:36:24;16.20;99.90
23087;DHT22;11712;51.134;4.156;2022-09-09T06:38:50;16.30;99.90
23087;DHT22;11712;51.134;4.156;2022-09-09T06:41:20;16.20;99.90
23087;DHT22;11712;51.134;4.156;2022-09-09T06:43:46;16.20;99.90
23087;DHT22;11712;51.134;4.156;2022-09-09T06:46:14;16.20;99.90
23087;DHT22;11712;51.134;4.156;2022-09-09T06:48:41;16.40;99.90
23087;DHT22;11712;51.134;4.156;2022-09-09T06:51:18;16.60;99.90
23087;DHT22;11712;51.134;4.156;2022-09-09T06:53:47;16.60;99.90
23087;DHT22;11712;51.134;4.156;2022-09-09T06:56:27;16.60;99.90
23087;DHT22;11712;51.134;4.156;2022-09-09T06:58:58;16.50;99.90
23087;DHT22;11712;51.134;4.156;2022-09-09T07:01:26;16.50;99.90
23087;DHT22;11712;51.134;4.156;2022-09-09T07:03:54;16.40;99.90
23087;DHT22;11712;51.134;4.156;2022-09-09T07:06:26;16.50;99.90
23087;DHT22;11712;51.134;4.156;2022-09-09T07:08:54;16.40;99.90
23087;DHT22;11712;51.134;4.156;2022-09-09T07:11:21;16.50;99.90
23087;DHT22;11712;51.134;4.156;2022-09-09T07:13:48;16.40;99.90
23087;DHT22;11712;51.134;4.156;2022-09-09T07:16:16;16.50;99.90
23087;DHT22;11712;51.134;4.156;2022-09-09T07:18:43;16.30;99.90
23087;DHT22;11712;51.134;4.156;2022-09-09T07:21:13;16.50;99.90
23087;DHT22;11712;51.134;4.156;2022-09-09T07:23:40;16.60;99.90
23087;DHT22;11712;51.134;4.156;2022-09-09T07:26:14;16.50;99.90
23087;DHT22;11712;51.134;4.156;2022-09-09T07:28:41;16.60;99.90
23087;DHT22;11712;51.134;4.156;2022-09-09T07:31:13;16.70;99.90
23087;DHT22;11712;51.134;4.156;2022-09-09T07:33:40;16.80;99.90
23087;DHT22;11712;51.134;4.156;2022-09-09T07:36:08;16.90;99.90
23087;DHT22;11712;51.134;4.156;2022-09-09T07:38:47;17.00;99.90
23087;DHT22;11712;51.134;4.156;2022-09-09T07:41:19;17.10;99.90
23087;DHT22;11712;51.134;4.156;2022-09-09T07:43:46;17.20;99.90
23087;DHT22;11712;51.134;4.156;2022-09-09T07:46:14;17.20;99.90
23087;DHT22;11712;51.134;4.156;2022-09-09T07:48:47;17.20;99.90
23087;DHT22;11712;51.134;4.156;2022-09-09T07:51:18;17.00;99.90
23087;DHT22;11712;51.134;4.156;2022-09-09T07:53:46;16.90;99.90
23087;DHT22;11712;51.134;4.156;2022-09-09T07:56:17;17.20;99.90
23087;DHT22;11712;51.134;4.156;2022-09-09T07:58:45;17.30;99.90
23087;DHT22;11712;51.134;4.156;2022-09-09T08:01:23;17.20;99.90
23087;DHT22;11712;51.134;4.156;2022-09-09T08:03:55;17.30;99.90
23087;DHT22;11712;51.134;4.156;2022-09-09T08:06:21;17.60;99.90
23087;DHT22;11712;51.134;4.156;2022-09-09T08:08:51;17.60;99.90
23087;DHT22;11712;51.134;4.156;2022-09-09T08:11:17;17.70;99.90
23087;DHT22;11712;51.134;4.156;2022-09-09T08:13:43;17.70;99.90
23087;DHT22;11712;51.134;4.156;2022-09-09T08:16:19;17.90;99.90
23087;DHT22;11712;51.134;4.156;2022-09-09T08:18:47;17.90;99.90
23087;DHT22;11712;51.134;4.156;2022-09-09T08:21:15;17.90;99.90
23087;DHT22;11712;51.134;4.156;2022-09-09T08:23:44;17.90;99.90
23087;DHT22;11712;51.134;4.156;2022-09-09T08:26:13;18.00;99.90
23087;DHT22;11712;51.134;4.156;2022-09-09T08:28:40;17.90;99.90
23087;DHT22;11712;51.134;4.156;2022-09-09T08:31:18;17.90;99.90
23087;DHT22;11712;51.134;4.156;2022-09-09T08:33:44;17.90;99.90
23087;DHT22;11712;51.134;4.156;2022-09-09T08:36:19;17.80;99.90
23087;DHT22;11712;51.134;4.156;2022-09-09T08:38:53;17.60;99.90
23087;DHT22;11712;51.134;4.156;2022-09-09T08:44:28;17.40;99.90
23087;DHT22;11712;51.134;4.156;2022-09-09T08:58:21;17.00;99.90
23087;DHT22;11712;51.134;4.156;2022-09-09T09:12:16;17.00;99.90
23087;DHT22;11712;51.134;4.156;2022-09-09T09:14:43;17.00;99.90
23087;DHT22;11712;51.134;4.156;2022-09-09T09:17:18;16.90;99.90
23087;DHT22;11712;51.134;4.156;2022-09-09T09:19:44;16.90;99.90
23087;DHT22;11712;51.134;4.156;2022-09-09T09:22:18;17.00;99.90
23087;DHT22;11712;51.134;4.156;2022-09-09T09:30:20;16.90;99.90
23087;DHT22;11712;51.134;4.156;2022-09-09T09:35:22;17.10;99.90
23087;DHT22;11712;51.134;4.156;2022-09-09T09:37:49;17.20;99.90
23087;DHT22;11712;51.134;4.156;2022-09-09T09:40:18;17.30;99.90
23087;DHT22;11712;51.134;4.156;2022-09-09T09:42:54;17.20;99.90
23087;DHT22;11712;51.134;4.156;2022-09-09T09:45:28;17.10;99.90
23087;DHT22;11712;51.134;4.156;2022-09-09T09:48:03;17.10;99.90
23087;DHT22;11712;51.134;4.156;2022-09-09T09:50:29;17.10;99.90
23087;DHT22;11712;51.134;4.156;2022-09-09T09:53:04;17.10;99.90
23087;DHT22;11712;51.134;4.156;2022-09-09T09:55:32;17.10;99.90
23087;DHT22;11712;51.134;4.156;2022-09-09T09:58:04;17.40;99.90
23087;DHT22;11712;51.134;4.156;2022-09-09T10:00:29;17.50;99.90
23087;DHT22;11712;51.134;4.156;2022-09-09T10:02:55;17.70;99.90
23087;DHT22;11712;51.134;4.156;2022-09-09T10:05:27;17.70;99.90
23087;DHT22;11712;51.134;4.156;2022-09-09T10:08:05;17.80;99.90
23087;DHT22;11712;51.134;4.156;2022-09-09T10:26:53;17.70;99.90
23087;DHT22;11712;51.134;4.156;2022-09-09T10:32:07;17.70;99.90
23087;DHT22;11712;51.134;4.156;2022-09-09T10:34:55;17.80;99.90
23087;DHT22;11712;51.134;4.156;2022-09-09T10:42:52;17.90;99.90
23087;DHT22;11712;51.134;4.156;2022-09-09T10:56:26;18.50;99.90
23087;DHT22;11712;51.134;4.156;2022-09-09T11:01:26;18.60;99.90
23087;DHT22;11712;51.134;4.156;2022-09-09T11:04:04;18.70;99.90
23087;DHT22;11712;51.134;4.156;2022-09-09T11:06:42;18.50;99.90
23087;DHT22;11712;51.134;4.156;2022-09-09T11:09:16;18.40;99.90
23087;DHT22;11712;51.134;4.156;2022-09-09T11:11:56;18.40;99.90
23087;DHT22;11712;51.134;4.156;2022-09-09T11:17:56;18.40;99.90
23087;DHT22;11712;51.134;4.156;2022-09-09T11:20:25;18.60;99.90
23087;DHT22;11712;51.134;4.156;2022-09-09T11:25:26;19.10;99.90
23087;DHT22;11712;51.134;4.156;2022-09-09T11:36:51;19.30;99.90
23087;DHT22;11712;51.134;4.156;2022-09-09T11:41:45;19.90;99.90
23087;DHT22;11712;51.134;4.156;2022-09-09T11:44:16;19.80;99.90
23087;DHT22;11712;51.134;4.156;2022-09-09T11:46:49;19.90;99.90
23087;DHT22;11712;51.134;4.156;2022-09-09T11:49:42;19.70;99.90
23087;DHT22;11712;51.134;4.156;2022-09-09T11:52:19;19.80;99.90
23087;DHT22;11712;51.134;4.156;2022-09-09T11:54:48;20.10;99.90
23087;DHT22;11712;51.134;4.156;2022-09-09T11:57:40;20.00;99.90
23087;DHT22;11712;51.134;4.156;2022-09-09T12:00:06;20.10;99.90
23087;DHT22;11712;51.134;4.156;2022-09-09T12:02:33;20.10;99.90
23087;DHT22;11712;51.134;4.156;2022-09-09T12:05:08;20.30;99.90
23087;DHT22;11712;51.134;4.156;2022-09-09T12:07:50;20.40;99.90
23087;DHT22;11712;51.134;4.156;2022-09-09T12:12:50;20.80;99.90
23087;DHT22;11712;51.134;4.156;2022-09-09T12:15:21;20.90;99.90
23087;DHT22;11712;51.134;4.156;2022-09-09T12:17:58;20.80;99.90
23087;DHT22;11712;51.134;4.156;2022-09-09T12:20:36;20.60;99.90
23087;DHT22;11712;51.134;4.156;2022-09-09T12:26:00;20.80;99.90
23087;DHT22;11712;51.134;4.156;2022-09-09T12:31:27;20.00;99.90
23087;DHT22;11712;51.134;4.156;2022-09-09T12:34:06;19.90;99.90
23087;DHT22;11712;51.134;4.156;2022-09-09T12:36:35;19.90;99.90
23087;DHT22;11712;51.134;4.156;2022-09-09T12:39:15;19.80;99.90
23087;DHT22;11712;51.134;4.156;2022-09-09T12:41:51;20.20;99.90
23087;DHT22;11712;51.134;4.156;2022-09-09T12:44:26;20.70;99.90
23087;DHT22;11712;51.134;4.156;2022-09-09T12:46:56;20.60;99.90
23087;DHT22;11712;51.134;4.156;2022-09-09T12:49:31;21.00;99.90
23087;DHT22;11712;51.134;4.156;2022-09-09T12:52:02;21.30;99.90
23087;DHT22;11712;51.134;4.156;2022-09-09T12:54:31;21.50;99.90
23087;DHT22;11712;51.134;4.156;2022-09-09T12:56:57;21.40;99.90
23087;DHT22;11712;51.134;4.156;2022-09-09T12:59:38;21.10;99.90
23087;DHT22;11712;51.134;4.156;2022-09-09T13:02:25;20.90;99.90
23087;DHT22;11712;51.134;4.156;2022-09-09T13:04:51;20.70;99.90
23087;DHT22;11712;51.134;4.156;2022-09-09T13:07:18;20.50;99.90
23087;DHT22;11712;51.134;4.156;2022-09-09T13:09:46;20.30;99.90
23087;DHT22;11712;51.134;4.156;2022-09-09T13:12:19;20.40;99.90
23087;DHT22;11712;51.134;4.156;2022-09-09T13:14:51;20.70;99.90
23087;DHT22;11712;51.134;4.156;2022-09-09T13:17:26;21.10;99.90
23087;DHT22;11712;51.134;4.156;2022-09-09T13:19:54;20.80;99.90
23087;DHT22;11712;51.134;4.156;2022-09-09T13:22:38;21.00;99.90
23087;DHT22;11712;51.134;4.156;2022-09-09T13:27:38;21.00;99.90
23087;DHT22;11712;51.134;4.156;2022-09-09T13:30:39;21.20;99.90
23087;DHT22;11712;51.134;4.156;2022-09-09T13:35:36;21.40;99.90
23087;DHT22;11712;51.134;4.156;2022-09-09T13:38:16;21.40;99.90
23087;DHT22;11712;51.134;4.156;2022-09-09T13:41:27;21.10;99.90
23087;DHT22;11712;51.134;4.156;2022-09-09T13:43:47;20.70;99.90
23087;DHT22;11712;51.134;4.156;2022-09-09T13:46:28;20.60;99.90
23087;DHT22;11712;51.134;4.156;2022-09-09T13:51:42;20.70;99.90
23087;DHT22;11712;51.134;4.156;2022-09-09T13:54:11;20.70;99.90
23087;DHT22;11712;51.134;4.156;2022-09-09T13:56:39;20.80;99.90
23087;DHT22;11712;51.134;4.156;2022-09-09T13:59:06;20.80;99.90
23087;DHT22;11712;51.134;4.156;2022-09-09T14:01:35;20.90;99.90
23087;DHT22;11712;51.134;4.156;2022-09-09T14:04:00;21.00;99.90
23087;DHT22;11712;51.134;4.156;2022-09-09T14:06:26;21.10;99.90
23087;DHT22;11712;51.134;4.156;2022-09-09T14:08:53;21.30;99.90
23087;DHT22;11712;51.134;4.156;2022-09-09T14:11:20;21.20;99.90
23087;DHT22;11712;51.134;4.156;2022-09-09T14:13:50;21.50;99.90
23087;DHT22;11712;51.134;4.156;2022-09-09T14:16:18;21.60;99.90
23087;DHT22;11712;51.134;4.156;2022-09-09T14:18:45;21.60;99.90
23087;DHT22;11712;51.134;4.156;2022-09-09T14:21:11;21.80;99.90
23087;DHT22;11712;51.134;4.156;2022-09-09T14:23:37;21.90;99.90
23087;DHT22;11712;51.134;4.156;2022-09-09T14:26:04;21.60;99.90
23087;DHT22;11712;51.134;4.156;2022-09-09T14:28:30;21.60;99.90
23087;DHT22;11712;51.134;4.156;2022-09-09T14:30:59;21.90;99.90
23087;DHT22;11712;51.134;4.156;2022-09-09T14:33:27;21.70;99.90
23087;DHT22;11712;51.134;4.156;2022-09-09T14:36:01;21.70;99.90
23087;DHT22;11712;51.134;4.156;2022-09-09T14:38:32;21.60;99.90
23087;DHT22;11712;51.134;4.156;2022-09-09T14:40:59;21.30;99.90
23087;DHT22;11712;51.134;4.156;2022-09-09T14:43:25;21.00;99.90
23087;DHT22;11712;51.134;4.156;2022-09-09T14:45:52;20.70;99.90
23087;DHT22;11712;51.134;4.156;2022-09-09T14:48:18;20.40;99.90
23087;DHT22;11712;51.134;4.156;2022-09-09T14:50:44;20.20;99.90
23087;DHT22;11712;51.134;4.156;2022-09-09T14:53:10;20.20;99.90
23087;DHT22;11712;51.134;4.156;2022-09-09T14:55:36;20.00;99.90
23087;DHT22;11712;51.134;4.156;2022-09-09T14:58:03;20.00;99.90
23087;DHT22;11712;51.134;4.156;2022-09-09T15:00:29;20.00;99.90
23087;DHT22;11712;51.134;4.156;2022-09-09T15:02:55;20.20;99.90
23087;DHT22;11712;51.134;4.156;2022-09-09T15:05:21;20.30;99.90
23087;DHT22;11712;51.134;4.156;2022-09-09T15:07:47;20.40;99.90
23087;DHT22;11712;51.134;4.156;2022-09-09T15:10:14;20.50;99.90
23087;DHT22;11712;51.134;4.156;2022-09-09T15:12:40;20.40;99.90
23087;DHT22;11712;51.134;4.156;2022-09-09T15:15:07;20.70;99.90
23087;DHT22;11712;51.134;4.156;2022-09-09T15:17:34;20.50;99.90
23087;DHT22;11712;51.134;4.156;2022-09-09T15:19:59;20.40;99.90
23087;DHT22;11712;51.134;4.156;2022-09-09T15:22:25;20.40;99.90
23087;DHT22;11712;51.134;4.156;2022-09-09T15:24:51;20.40;99.90
23087;DHT22;11712;51.134;4.156;2022-09-09T15:27:17;20.50;99.90
23087;DHT22;11712;51.134;4.156;2022-09-09T15:29:43;19.90;99.90
23087;DHT22;11712;51.134;4.156;2022-09-09T15:32:09;19.60;99.90
23087;DHT22;11712;51.134;4.156;2022-09-09T15:34:35;19.40;99.90
23087;DHT22;11712;51.134;4.156;2022-09-09T15:37:01;18.90;99.90
23087;DHT22;11712;51.134;4.156;2022-09-09T15:39:27;18.60;99.90
23087;DHT22;11712;51.134;4.156;2022-09-09T15:41:52;18.30;99.90
23087;DHT22;11712;51.134;4.156;2022-09-09T15:44:19;18.30;99.90
23087;DHT22;11712;51.134;4.156;2022-09-09T15:46:49;18.30;99.90
23087;DHT22;11712;51.134;4.156;2022-09-09T15:49:22;18.40;99.90
23087;DHT22;11712;51.134;4.156;2022-09-09T15:51:53;18.50;99.90
23087;DHT22;11712;51.134;4.156;2022-09-09T15:54:20;18.50;99.90
23087;DHT22;11712;51.134;4.156;2022-09-09T15:56:51;18.40;99.90
23087;DHT22;11712;51.134;4.156;2022-09-09T15:59:17;19.00;99.90
23087;DHT22;11712;51.134;4.156;2022-09-09T16:01:43;19.70;99.90
23087;DHT22;11712;51.134;4.156;2022-09-09T16:04:09;19.50;99.90
23087;DHT22;11712;51.134;4.156;2022-09-09T16:06:35;19.50;99.90
23087;DHT22;11712;51.134;4.156;2022-09-09T16:09:04;19.50;99.90
23087;DHT22;11712;51.134;4.156;2022-09-09T16:11:32;19.60;99.90
23087;DHT22;11712;51.134;4.156;2022-09-09T16:13:59;19.50;99.90
23087;DHT22;11712;51.134;4.156;2022-09-09T16:16:27;19.40;99.90
23087;DHT22;11712;51.134;4.156;2022-09-09T16:18:56;19.20;99.90
23087;DHT22;11712;51.134;4.156;2022-09-09T16:21:24;19.20;99.90
23087;DHT22;11712;51.134;4.156;2022-09-09T16:23:53;19.00;99.90
23087;DHT22;11712;51.134;4.156;2022-09-09T16:26:19;18.90;99.90
23087;DHT22;11712;51.134;4.156;2022-09-09T16:28:45;19.00;99.90
23087;DHT22;11712;51.134;4.156;2022-09-09T16:31:17;18.80;99.90
23087;DHT22;11712;51.134;4.156;2022-09-09T16:33:44;18.70;99.90
23087;DHT22;11712;51.134;4.156;2022-09-09T16:36:12;18.70;99.90
23087;DHT22;11712;51.134;4.156;2022-09-09T16:38:39;18.70;99.90
23087;DHT22;11712;51.134;4.156;2022-09-09T16:41:06;18.70;99.90
23087;DHT22;11712;51.134;4.156;2022-09-09T16:43:35;18.80;99.90
23087;DHT22;11712;51.134;4.156;2022-09-09T16:46:17;19.00;99.90
23087;DHT22;11712;51.134;4.156;2022-09-09T16:48:45;19.00;99.90
23087;DHT22;11712;51.134;4.156;2022-09-09T16:51:16;19.10;99.90
23087;DHT22;11712;51.134;4.156;2022-09-09T16:53:42;19.10;99.90
23087;DHT22;11712;51.134;4.156;2022-09-09T16:56:11;19.10;99.90
23087;DHT22;11712;51.134;4.156;2022-09-09T16:58:37;19.00;99.90
23087;DHT22;11712;51.134;4.156;2022-09-09T17:01:04;18.90;99.90
23087;DHT22;11712;51.134;4.156;2022-09-09T17:03:31;18.90;99.90
23087;DHT22;11712;51.134;4.156;2022-09-09T17:05:57;19.00;99.90
23087;DHT22;11712;51.134;4.156;2022-09-09T17:08:25;19.00;99.90
23087;DHT22;11712;51.134;4.156;2022-09-09T17:10:51;19.10;99.90
23087;DHT22;11712;51.134;4.156;2022-09-09T17:13:17;19.10;99.90
23087;DHT22;11712;51.134;4.156;2022-09-09T17:15:45;19.00;99.90
23087;DHT22;11712;51.134;4.156;2022-09-09T17:18:12;19.10;99.90
23087;DHT22;11712;51.134;4.156;2022-09-09T17:20:41;19.00;99.90
23087;DHT22;11712;51.134;4.156;2022-09-09T17:23:08;19.00;99.90
23087;DHT22;11712;51.134;4.156;2022-09-09T17:25:35;19.10;99.90
23087;DHT22;11712;51.134;4.156;2022-09-09T17:28:01;19.10;99.90
23087;DHT22;11712;51.134;4.156;2022-09-09T17:30:32;19.10;99.90
23087;DHT22;11712;51.134;4.156;2022-09-09T17:32:59;19.00;99.90
23087;DHT22;11712;51.134;4.156;2022-09-09T17:35:25;18.80;99.90
23087;DHT22;11712;51.134;4.156;2022-09-09T17:37:55;18.70;99.90
23087;DHT22;11712;51.134;4.156;2022-09-09T17:40:21;18.70;99.90
23087;DHT22;11712;51.134;4.156;2022-09-09T17:42:47;18.60;99.90
23087;DHT22;11712;51.134;4.156;2022-09-09T17:45:14;18.70;99.90
23087;DHT22;11712;51.134;4.156;2022-09-09T17:47:40;18.50;99.90
23087;DHT22;11712;51.134;4.156;2022-09-09T17:50:08;18.30;99.90
23087;DHT22;11712;51.134;4.156;2022-09-09T17:52:35;18.30;99.90
23087;DHT22;11712;51.134;4.156;2022-09-09T17:55:00;18.30;99.90
23087;DHT22;11712;51.134;4.156;2022-09-09T17:57:26;18.20;99.90
23087;DHT22;11712;51.134;4.156;2022-09-09T17:59:52;18.10;99.90
23087;DHT22;11712;51.134;4.156;2022-09-09T18:02:17;17.90;99.90
23087;DHT22;11712;51.134;4.156;2022-09-09T18:04:43;17.80;99.90